createdAt,value
2019-04-10T00:02:13.552Z,4.76
2019-04-10T00:04:45.290Z,4.78
2019-04-10T00:07:18.364Z,4.92
2019-04-10T00:09:48.358Z,4.87
2019-04-10T00:12:19.034Z,4.83
2019-04-10T00:14:50.459Z,4.77
2019-04-10T00:17:21.162Z,4.79
2019-04-10T00:19:52.106Z,4.82
2019-04-10T00:22:22.788Z,4.74
2019-04-10T00:24:54.574Z,4.85
2019-04-10T00:27:26.256Z,4.82
2019-04-10T00:29:57.000Z,4.78
2019-04-10T00:32:27.969Z,4.74
2019-04-10T00:34:58.638Z,4.77
2019-04-10T00:37:31.151Z,4.86
2019-04-10T00:40:01.727Z,4.92
2019-04-10T00:42:32.841Z,4.94
2019-04-10T00:45:04.437Z,5.01
2019-04-10T00:47:35.388Z,5.17
2019-04-10T00:50:08.480Z,5.08
2019-04-10T00:52:39.283Z,5.13
2019-04-10T00:55:11.236Z,5.15
2019-04-10T00:57:42.476Z,5.05
2019-04-10T01:00:15.442Z,5.12
2019-04-10T01:02:47.097Z,5.07
2019-04-10T01:05:17.827Z,5.10
2019-04-10T01:07:48.675Z,5.23
2019-04-10T01:10:20.451Z,5.10
2019-04-10T01:12:52.267Z,5.06
2019-04-10T01:15:23.083Z,5.02
2019-04-10T01:17:54.770Z,4.99
2019-04-10T01:20:25.828Z,4.93
2019-04-10T01:22:57.315Z,4.82
2019-04-10T01:25:28.387Z,4.75
2019-04-10T01:27:59.101Z,4.65
2019-04-10T01:30:30.558Z,4.54
2019-04-10T01:33:01.305Z,4.65
2019-04-10T01:35:32.154Z,4.64
2019-04-10T01:38:05.893Z,4.65
2019-04-10T01:40:35.739Z,4.74
2019-04-10T01:43:12.826Z,4.80
2019-04-10T01:45:40.042Z,4.71
2019-04-10T01:48:10.743Z,4.80
2019-04-10T01:50:42.314Z,4.84
2019-04-10T01:53:13.398Z,4.77
2019-04-10T01:55:44.164Z,4.68
2019-04-10T01:58:17.010Z,4.76
2019-04-10T02:00:50.672Z,4.77
2019-04-10T02:03:22.211Z,4.69
2019-04-10T02:05:54.604Z,4.74
2019-04-10T02:08:25.749Z,4.72
2019-04-10T02:10:56.633Z,4.78
2019-04-10T02:13:27.669Z,4.68
2019-04-10T02:15:58.607Z,4.61
2019-04-10T02:18:29.658Z,4.59
2019-04-10T02:21:01.157Z,4.50
2019-04-10T02:23:32.295Z,4.36
2019-04-10T02:26:03.252Z,4.40
2019-04-10T02:28:36.017Z,4.34
2019-04-10T02:31:07.200Z,4.38
2019-04-10T02:33:38.772Z,4.32
2019-04-10T02:36:10.859Z,4.38
2019-04-10T02:38:54.524Z,4.34
2019-04-10T02:41:14.320Z,4.35
2019-04-10T02:43:45.393Z,4.54
2019-04-10T02:46:16.279Z,4.44
2019-04-10T02:48:47.650Z,4.42
2019-04-10T02:51:19.995Z,4.40
2019-04-10T02:53:53.071Z,4.56
2019-04-10T02:56:25.255Z,4.62
2019-04-10T02:58:56.634Z,4.57
2019-04-10T03:01:27.600Z,4.61
2019-04-10T03:03:59.236Z,4.64
2019-04-10T03:06:31.182Z,4.68
2019-04-10T03:09:14.702Z,4.81
2019-04-10T03:11:35.366Z,4.87
2019-04-10T03:14:07.975Z,4.88
2019-04-10T03:16:39.576Z,4.84
2019-04-10T03:19:11.643Z,4.76
2019-04-10T03:21:43.030Z,4.84
2019-04-10T03:24:13.955Z,4.86
2019-04-10T03:26:45.754Z,4.83
2019-04-10T03:29:16.481Z,4.82
2019-04-10T03:31:48.185Z,4.52
2019-04-10T03:34:28.984Z,4.65
2019-04-10T03:37:01.770Z,4.63
2019-04-10T03:39:35.816Z,4.59
2019-04-10T03:42:06.534Z,4.55
2019-04-10T03:44:38.884Z,4.49
2019-04-10T03:47:09.554Z,4.51
2019-04-10T03:49:40.224Z,4.51
2019-04-10T03:52:11.462Z,4.27
2019-04-10T03:54:42.183Z,4.27
2019-04-10T03:57:12.906Z,4.21
2019-04-10T03:59:43.666Z,4.30
2019-04-10T04:02:15.605Z,4.31
2019-04-10T04:04:47.969Z,4.33
2019-04-10T04:07:19.657Z,4.27
2019-04-10T04:09:50.325Z,4.61
2019-04-10T04:12:21.007Z,4.77
2019-04-10T04:14:52.729Z,4.88
2019-04-10T04:17:24.218Z,4.84
2019-04-10T04:19:54.919Z,4.55
2019-04-10T04:22:25.919Z,4.30
2019-04-10T04:24:56.628Z,4.32
2019-04-10T04:27:27.310Z,4.17
2019-04-10T04:29:59.548Z,4.19
2019-04-10T04:32:31.518Z,4.09
2019-04-10T04:35:02.463Z,4.28
2019-04-10T04:37:33.584Z,4.00
2019-04-10T04:40:05.612Z,4.01
2019-04-10T04:42:36.589Z,3.85
2019-04-10T04:45:08.696Z,4.05
2019-04-10T04:47:39.847Z,4.04
2019-04-10T04:50:10.578Z,4.03
2019-04-10T04:52:41.268Z,4.12
2019-04-10T04:55:12.282Z,4.19
2019-04-10T04:57:43.320Z,4.02
2019-04-10T05:00:15.241Z,4.25
2019-04-10T05:02:47.017Z,4.22
2019-04-10T05:05:18.495Z,4.24
2019-04-10T05:07:58.496Z,4.34
2019-04-10T05:10:21.623Z,4.35
2019-04-10T05:12:53.620Z,4.32
2019-04-10T05:15:24.874Z,4.40
2019-04-10T05:17:55.719Z,4.47
2019-04-10T05:20:38.731Z,4.63
2019-04-10T05:22:59.928Z,4.64
2019-04-10T05:25:31.595Z,4.79
2019-04-10T05:28:02.299Z,4.42
2019-04-10T05:30:33.504Z,4.55
2019-04-10T05:33:04.262Z,4.71
2019-04-10T05:35:35.095Z,4.56
2019-04-10T05:38:05.761Z,4.72
2019-04-10T05:40:36.732Z,4.79
2019-04-10T05:43:07.633Z,4.83
2019-04-10T05:45:38.345Z,5.09
2019-04-10T05:48:09.045Z,5.48
2019-04-10T05:50:39.885Z,5.63
2019-04-10T05:53:10.618Z,5.97
2019-04-10T05:55:41.426Z,6.51
2019-04-10T05:58:13.380Z,7.19
2019-04-10T06:00:45.046Z,7.55
2019-04-10T06:03:16.515Z,6.80
2019-04-10T06:05:47.297Z,7.19
2019-04-10T06:08:18.183Z,7.45
2019-04-10T06:10:49.860Z,7.62
2019-04-10T06:13:20.607Z,7.42
2019-04-10T06:15:51.292Z,7.46
2019-04-10T06:18:22.845Z,7.74
2019-04-10T06:20:54.694Z,7.89
2019-04-10T06:23:25.677Z,8.03
2019-04-10T06:25:56.618Z,7.72
2019-04-10T06:28:27.961Z,7.40
2019-04-10T06:31:00.660Z,6.94
2019-04-10T06:33:31.822Z,6.88
2019-04-10T06:36:02.907Z,6.83
2019-04-10T06:38:34.997Z,7.06
2019-04-10T06:41:06.230Z,7.17
2019-04-10T06:43:37.233Z,7.19
2019-04-10T06:46:08.440Z,7.09
2019-04-10T06:48:40.315Z,6.87
2019-04-10T06:51:12.295Z,6.94
2019-04-10T06:53:43.367Z,6.91
2019-04-10T06:56:14.986Z,7.01
2019-04-10T06:58:45.701Z,7.09
2019-04-10T07:01:16.728Z,7.19
2019-04-10T07:03:57.547Z,7.09
2019-04-10T07:06:22.284Z,7.15
2019-04-10T07:08:53.306Z,7.20
2019-04-10T07:11:29.192Z,7.31
2019-04-10T07:13:57.375Z,7.46
2019-04-10T07:16:31.517Z,7.47
2019-04-10T07:19:05.598Z,7.31
2019-04-10T07:21:36.090Z,7.49
2019-04-10T07:24:09.260Z,7.76
2019-04-10T07:26:43.148Z,7.73
2019-04-10T07:29:15.592Z,7.69
2019-04-10T07:31:44.675Z,7.92
2019-04-10T07:34:19.693Z,7.41
2019-04-10T07:36:48.351Z,7.30
2019-04-10T07:39:19.010Z,7.22
2019-04-10T07:41:49.692Z,7.09
2019-04-10T07:44:20.362Z,7.40
2019-04-10T07:46:51.298Z,7.23
2019-04-10T07:49:22.215Z,7.45
2019-04-10T07:51:54.349Z,7.66
2019-04-10T07:54:25.033Z,7.95
2019-04-10T07:56:55.771Z,7.69
2019-04-10T07:59:27.462Z,7.67
2019-04-10T08:01:58.454Z,7.97
2019-04-10T08:04:29.196Z,7.84
2019-04-10T08:07:01.553Z,8.15
2019-04-10T08:09:33.396Z,8.10
2019-04-10T08:12:05.121Z,8.14
2019-04-10T08:14:37.871Z,8.26
2019-04-10T08:17:08.649Z,8.17
2019-04-10T08:19:41.603Z,8.40
2019-04-10T08:22:13.132Z,8.49
2019-04-10T08:24:47.172Z,8.79
2019-04-10T08:27:19.317Z,9.05
2019-04-10T08:29:50.612Z,9.29
2019-04-10T08:32:21.891Z,9.93
2019-04-10T08:34:52.696Z,10.38
2019-04-10T08:37:24.186Z,10.56
2019-04-10T08:39:55.047Z,10.82
2019-04-10T08:42:26.595Z,11.10
2019-04-10T08:44:57.559Z,11.11
2019-04-10T08:47:28.242Z,11.30
2019-04-10T08:49:59.272Z,11.43
2019-04-10T08:52:30.440Z,11.33
2019-04-10T08:55:01.882Z,12.12
2019-04-10T08:57:34.081Z,12.83
2019-04-10T09:00:08.266Z,13.26
2019-04-10T09:02:39.035Z,13.82
2019-04-10T09:05:11.244Z,13.35
2019-04-10T09:07:42.308Z,13.18
2019-04-10T09:10:14.348Z,13.93
2019-04-10T09:12:45.146Z,14.25
2019-04-10T09:15:16.213Z,14.30
2019-04-10T09:17:47.255Z,14.71
2019-04-10T09:20:18.497Z,14.62
2019-04-10T09:23:10.765Z,14.81
2019-04-10T09:25:22.894Z,13.66
2019-04-10T09:27:54.029Z,13.16
2019-04-10T09:30:26.917Z,11.55
2019-04-10T09:32:57.645Z,11.63
2019-04-10T09:35:28.749Z,11.71
2019-04-10T09:37:59.530Z,11.70
2019-04-10T09:40:30.486Z,12.03
2019-04-10T09:43:01.192Z,12.02
2019-04-10T09:45:32.325Z,12.92
2019-04-10T09:48:04.191Z,13.31
2019-04-10T09:50:35.426Z,13.10
2019-04-10T09:53:06.405Z,12.36
2019-04-10T09:55:38.294Z,12.66
2019-04-10T09:58:11.741Z,12.81
2019-04-10T10:00:43.761Z,11.97
2019-04-10T10:03:15.261Z,11.85
2019-04-10T10:05:46.668Z,12.57
2019-04-10T10:08:18.372Z,12.47
2019-04-10T10:10:49.212Z,12.34
2019-04-10T10:13:21.393Z,12.86
2019-04-10T10:15:52.242Z,12.80
2019-04-10T10:18:23.484Z,12.97
2019-04-10T10:20:54.312Z,12.07
2019-04-10T10:23:25.632Z,11.90
2019-04-10T10:25:56.720Z,12.72
2019-04-10T10:28:27.503Z,12.13
2019-04-10T10:30:58.203Z,12.67
2019-04-10T10:33:29.889Z,12.75
2019-04-10T10:36:01.008Z,12.25
2019-04-10T10:38:32.026Z,11.81
2019-04-10T10:41:02.757Z,11.61
2019-04-10T10:43:34.304Z,11.77
2019-04-10T10:46:05.693Z,11.73
2019-04-10T10:48:36.455Z,11.55
2019-04-10T10:51:08.673Z,12.20
2019-04-10T10:53:40.664Z,12.87
2019-04-10T10:56:11.914Z,12.74
2019-04-10T10:58:42.621Z,13.11
2019-04-10T11:01:13.707Z,13.53
2019-04-10T11:03:44.745Z,13.37
2019-04-10T11:06:16.657Z,13.22
2019-04-10T11:08:48.358Z,13.28
2019-04-10T11:11:20.028Z,12.70
2019-04-10T11:13:50.819Z,12.92
2019-04-10T11:16:23.195Z,12.97
2019-04-10T11:18:55.034Z,13.42
2019-04-10T11:21:27.376Z,14.42
2019-04-10T11:23:58.426Z,14.71
2019-04-10T11:26:30.307Z,14.96
2019-04-10T11:29:01.597Z,14.31
2019-04-10T11:31:33.310Z,13.11
2019-04-10T11:34:04.218Z,12.69
2019-04-10T11:36:36.117Z,12.75
2019-04-10T11:39:17.127Z,12.67
2019-04-10T11:41:41.316Z,12.52
2019-04-10T11:44:14.306Z,12.11
2019-04-10T11:46:44.684Z,11.82
2019-04-10T11:49:17.810Z,12.09
2019-04-10T11:51:50.876Z,12.79
2019-04-10T11:54:26.457Z,13.00
2019-04-10T11:56:58.317Z,12.66
2019-04-10T11:59:28.679Z,12.23
2019-04-10T12:02:03.502Z,12.04
2019-04-10T12:04:43.530Z,11.64
2019-04-10T12:07:05.988Z,12.02
2019-04-10T12:12:09.206Z,12.44
2019-04-10T12:14:39.911Z,11.60
2019-04-10T12:17:11.681Z,11.54
2019-04-10T12:19:44.548Z,11.64
2019-04-10T12:22:15.767Z,11.75
2019-04-10T12:24:49.613Z,11.69
2019-04-10T12:27:18.893Z,12.00
2019-04-10T12:29:49.661Z,12.29
2019-04-10T12:32:20.842Z,12.33
2019-04-10T12:34:53.075Z,12.70
2019-04-10T12:37:23.755Z,12.34
2019-04-10T12:39:55.147Z,11.71
2019-04-10T12:42:26.160Z,11.51
2019-04-10T12:44:57.826Z,11.55
2019-04-10T12:47:28.548Z,11.33
2019-04-10T12:50:00.269Z,10.95
2019-04-10T12:52:31.001Z,11.10
2019-04-10T12:55:02.045Z,11.20
2019-04-10T12:57:32.998Z,11.45
2019-04-10T13:00:06.753Z,11.29
2019-04-10T13:02:38.614Z,11.24
2019-04-10T13:05:11.294Z,11.26
2019-04-10T13:07:42.014Z,11.07
2019-04-10T13:10:13.147Z,11.35
2019-04-10T13:12:45.167Z,11.39
2019-04-10T13:15:17.336Z,11.13
2019-04-10T13:17:49.037Z,11.16
2019-04-10T13:20:20.432Z,10.87
2019-04-10T13:22:51.160Z,10.90
2019-04-10T13:25:22.365Z,10.71
2019-04-10T13:27:53.401Z,10.97
2019-04-10T13:30:25.028Z,10.75
2019-04-10T13:32:56.150Z,10.82
2019-04-10T13:35:28.387Z,11.01
2019-04-10T13:37:59.202Z,11.05
2019-04-10T13:40:29.957Z,11.04
2019-04-10T13:43:01.326Z,11.15
2019-04-10T13:45:32.417Z,10.84
2019-04-10T13:48:04.001Z,10.84
2019-04-10T13:50:34.866Z,10.98
2019-04-10T13:53:05.829Z,11.05
2019-04-10T13:55:36.990Z,11.20
2019-04-10T13:58:08.843Z,11.33
2019-04-10T14:00:41.573Z,11.12
2019-04-10T14:03:12.366Z,10.80
2019-04-10T14:05:43.291Z,10.78
2019-04-10T14:08:14.619Z,10.50
2019-04-10T14:10:46.719Z,10.50
2019-04-10T14:13:17.922Z,10.83
2019-04-10T14:15:48.729Z,10.88
2019-04-10T14:18:19.930Z,10.99
2019-04-10T14:20:51.312Z,10.85
2019-04-10T14:23:24.058Z,10.97
2019-04-10T14:26:02.869Z,10.86
2019-04-10T14:28:35.431Z,10.85
2019-04-10T14:31:24.601Z,11.17
2019-04-10T14:33:56.541Z,11.08
2019-04-10T14:36:28.419Z,11.10
2019-04-10T14:39:10.522Z,10.99
2019-04-10T14:41:33.760Z,10.54
2019-04-10T14:44:06.071Z,10.48
2019-04-10T14:46:37.999Z,10.64
2019-04-10T14:49:09.020Z,10.39
2019-04-10T14:51:40.807Z,10.24
2019-04-10T14:54:11.864Z,10.31
2019-04-10T14:56:43.244Z,10.45
2019-04-10T14:59:13.966Z,10.64
2019-04-10T15:01:44.676Z,10.92
2019-04-10T15:04:17.286Z,11.03
2019-04-10T15:06:48.408Z,10.87
2019-04-10T15:09:25.559Z,10.96
2019-04-10T15:11:53.915Z,10.54
2019-04-10T15:14:25.733Z,10.66
2019-04-10T15:17:02.662Z,10.79
2019-04-10T15:19:30.356Z,10.77
2019-04-10T15:22:01.195Z,10.59
2019-04-10T15:24:33.180Z,10.37
2019-04-10T15:27:04.841Z,10.28
2019-04-10T15:29:36.436Z,10.35
2019-04-10T15:32:08.441Z,10.37
2019-04-10T15:34:39.606Z,10.46
2019-04-10T15:37:11.004Z,10.58
2019-04-10T15:39:43.295Z,10.73
2019-04-10T15:42:14.490Z,11.10
2019-04-10T15:44:46.042Z,11.03
2019-04-10T15:47:22.178Z,10.75
2019-04-10T15:49:49.516Z,10.44
2019-04-10T15:52:20.534Z,10.45
2019-04-10T15:54:53.357Z,10.54
2019-04-10T15:57:24.897Z,10.55
2019-04-10T15:59:56.680Z,10.49
2019-04-10T16:02:27.977Z,10.38
2019-04-10T16:05:01.340Z,10.32
2019-04-10T16:07:34.209Z,10.46
2019-04-10T16:10:28.859Z,10.53
2019-04-10T16:13:17.642Z,10.62
2019-04-10T16:15:48.503Z,10.46
2019-04-10T16:18:21.141Z,10.37
2019-04-10T16:20:54.887Z,10.35
2019-04-10T16:23:29.749Z,10.35
2019-04-10T16:26:00.958Z,10.24
2019-04-10T16:28:31.755Z,10.27
2019-04-10T16:31:03.375Z,10.33
2019-04-10T16:33:34.294Z,10.33
2019-04-10T16:36:05.379Z,10.33
2019-04-10T16:38:37.211Z,10.20
2019-04-10T16:41:08.283Z,10.08
2019-04-10T16:43:40.397Z,10.17
2019-04-10T16:46:11.243Z,10.08
2019-04-10T16:48:42.282Z,9.93
2019-04-10T16:51:12.937Z,9.91
2019-04-10T16:53:44.152Z,9.74
2019-04-10T16:56:15.811Z,9.78
2019-04-10T16:58:46.489Z,9.75
2019-04-10T17:01:18.212Z,9.78
2019-04-10T17:03:49.765Z,9.71
2019-04-10T17:06:21.711Z,9.76
2019-04-10T17:08:52.730Z,9.73
2019-04-10T17:11:23.410Z,9.62
2019-04-10T17:13:55.053Z,9.52
2019-04-10T17:16:26.151Z,9.50
2019-04-10T17:18:57.259Z,9.54
2019-04-10T17:21:30.551Z,9.43
2019-04-10T17:24:00.869Z,9.35
2019-04-10T17:26:32.883Z,9.32
2019-04-10T17:29:05.047Z,9.22
2019-04-10T17:31:38.320Z,9.21
2019-04-10T17:34:10.129Z,9.19
2019-04-10T17:36:41.363Z,9.12
2019-04-10T17:39:16.140Z,9.18
2019-04-10T17:41:46.431Z,9.04
2019-04-10T17:44:17.982Z,8.94
2019-04-10T17:46:49.171Z,8.90
2019-04-10T17:49:20.364Z,8.87
2019-04-10T17:51:52.341Z,8.79
2019-04-10T17:54:23.222Z,8.77
2019-04-10T17:56:54.954Z,8.70
2019-04-10T17:59:26.731Z,8.65
2019-04-10T18:01:59.435Z,8.61
2019-04-10T18:04:31.920Z,8.53
2019-04-10T18:07:03.918Z,8.53
2019-04-10T18:09:35.460Z,8.55
2019-04-10T18:12:08.043Z,8.46
2019-04-10T18:14:40.896Z,8.40
2019-04-10T18:17:11.371Z,8.29
2019-04-10T18:19:42.223Z,8.29
2019-04-10T18:22:12.910Z,8.30
2019-04-10T18:24:45.327Z,8.24
2019-04-10T18:27:16.401Z,8.24
2019-04-10T18:29:47.560Z,8.18
2019-04-10T18:32:18.725Z,8.19
2019-04-10T18:34:50.064Z,8.15
2019-04-10T18:37:24.067Z,8.09
2019-04-10T18:39:54.891Z,8.03
2019-04-10T18:42:26.704Z,7.93
2019-04-10T18:44:57.714Z,7.91
2019-04-10T18:47:32.042Z,7.92
2019-04-10T18:50:02.703Z,7.93
2019-04-10T18:52:51.778Z,7.80
2019-04-10T18:55:24.586Z,7.73
2019-04-10T18:57:57.099Z,7.69
2019-04-10T19:00:48.569Z,7.71
2019-04-10T19:03:47.963Z,7.64
2019-04-10T19:06:26.719Z,7.53
2019-04-10T19:09:07.741Z,7.43
2019-04-10T19:11:35.254Z,7.42
2019-04-10T19:14:04.220Z,7.49
2019-04-10T19:16:35.622Z,7.37
2019-04-10T19:19:06.728Z,7.36
2019-04-10T19:21:37.720Z,7.29
2019-04-10T19:24:08.512Z,7.27
2019-04-10T19:26:39.916Z,7.23
2019-04-10T19:29:11.093Z,7.20
2019-04-10T19:31:43.705Z,7.13
2019-04-10T19:34:14.967Z,6.99
2019-04-10T19:36:45.975Z,6.97
2019-04-10T19:39:18.075Z,6.84
2019-04-10T19:41:49.608Z,6.80
2019-04-10T19:44:21.150Z,6.76
2019-04-10T19:46:52.124Z,6.70
2019-04-10T19:49:23.908Z,6.69
2019-04-10T19:51:55.957Z,6.59
2019-04-10T19:54:40.946Z,6.62
2019-04-10T19:57:05.098Z,6.60
2019-04-10T19:59:35.856Z,6.61
2019-04-10T20:02:06.731Z,6.58
2019-04-10T20:04:37.400Z,6.48
2019-04-10T20:07:09.047Z,6.33
2019-04-10T20:09:40.997Z,6.30
2019-04-10T20:12:12.828Z,6.27
2019-04-10T20:14:44.384Z,6.19
2019-04-10T20:17:15.723Z,6.12
2019-04-10T20:19:46.765Z,6.12
2019-04-10T20:22:18.843Z,6.11
2019-04-10T20:24:50.802Z,5.95
2019-04-10T20:27:23.658Z,5.93
2019-04-10T20:29:55.223Z,5.91
2019-04-10T20:32:30.180Z,5.79
2019-04-10T20:35:02.244Z,5.77
2019-04-10T20:37:34.451Z,5.66
2019-04-10T20:40:06.817Z,5.55
2019-04-10T20:42:38.246Z,5.52
2019-04-10T20:45:09.438Z,5.44
2019-04-10T20:47:41.287Z,5.44
2019-04-10T20:50:12.453Z,5.38
2019-04-10T20:52:43.561Z,5.39
2019-04-10T20:55:14.536Z,5.36
2019-04-10T20:57:45.828Z,5.36
2019-04-10T21:00:22.328Z,5.33
2019-04-10T21:02:55.087Z,5.31
2019-04-10T21:05:26.218Z,5.37
2019-04-10T21:07:57.380Z,5.22
2019-04-10T21:10:29.053Z,5.29
2019-04-10T21:13:01.112Z,5.25
2019-04-10T21:15:33.339Z,5.21
2019-04-10T21:18:04.723Z,5.21
2019-04-10T21:20:36.614Z,5.20
2019-04-10T21:23:07.612Z,5.14
2019-04-10T21:25:39.453Z,5.11
2019-04-10T21:28:10.246Z,5.07
2019-04-10T21:30:58.847Z,5.04
2019-04-10T21:33:43.175Z,5.02
2019-04-10T21:36:13.855Z,4.97
2019-04-10T21:38:44.892Z,4.95
2019-04-10T21:41:17.859Z,4.90
2019-04-10T21:43:50.850Z,4.84
2019-04-10T21:46:22.202Z,4.82
2019-04-10T21:48:53.124Z,4.79
2019-04-10T21:51:25.218Z,4.77
2019-04-10T21:53:56.588Z,4.73
2019-04-10T21:56:27.331Z,4.69
2019-04-10T21:58:59.041Z,4.67
2019-04-10T22:01:30.446Z,4.64
2019-04-10T22:04:02.731Z,4.65
2019-04-10T22:06:38.270Z,4.61
2019-04-10T22:09:10.437Z,4.59
2019-04-10T22:11:45.499Z,4.60
2019-04-10T22:14:17.143Z,4.58
2019-04-10T22:16:48.493Z,4.59
2019-04-10T22:19:21.021Z,4.55
2019-04-10T22:21:52.026Z,4.65
2019-04-10T22:24:23.524Z,4.56
2019-04-10T22:26:54.383Z,4.55
2019-04-10T22:29:25.981Z,4.50
2019-04-10T22:31:57.736Z,4.45
2019-04-10T22:34:29.818Z,4.47
2019-04-10T22:37:00.773Z,4.53
2019-04-10T22:39:31.744Z,4.55
2019-04-10T22:42:03.357Z,4.51
2019-04-10T22:44:40.263Z,4.66
2019-04-10T22:47:07.846Z,4.54
2019-04-10T22:49:39.304Z,4.75
2019-04-10T22:52:10.953Z,4.67
2019-04-10T22:54:42.297Z,4.68
2019-04-10T22:57:13.057Z,4.55
2019-04-10T22:59:43.727Z,4.43
2019-04-10T23:02:16.108Z,4.43
2019-04-10T23:04:47.097Z,4.45
2019-04-10T23:07:18.050Z,4.45
2019-04-10T23:09:48.853Z,4.65
2019-04-10T23:12:20.349Z,4.68
2019-04-10T23:14:51.246Z,4.70
2019-04-10T23:17:22.142Z,4.47
2019-04-10T23:19:54.197Z,4.46
2019-04-10T23:22:25.257Z,4.53
2019-04-10T23:24:56.078Z,4.58
2019-04-10T23:27:26.904Z,4.73
2019-04-10T23:29:58.724Z,4.55
2019-04-10T23:32:29.403Z,4.43
2019-04-10T23:35:01.153Z,4.60
2019-04-10T23:37:33.053Z,4.48
2019-04-10T23:40:04.961Z,4.42
2019-04-10T23:42:36.025Z,4.48
2019-04-10T23:45:07.573Z,4.33
2019-04-10T23:47:38.305Z,4.48
2019-04-10T23:50:10.045Z,4.56
2019-04-10T23:52:40.785Z,4.70
2019-04-10T23:55:11.508Z,4.73
2019-04-10T23:57:43.236Z,4.75
